createdAt,value
2023-02-27T00:00:22.988Z,98367.63
2023-02-27T00:02:51.924Z,98390.97
2023-02-27T00:05:22.459Z,98398.47
2023-02-27T00:07:50.278Z,98399.94
2023-02-27T00:10:17.763Z,98403.22
2023-02-27T00:12:45.038Z,98388.59
2023-02-27T00:15:18.550Z,98388.38
2023-02-27T00:17:46.261Z,98410.56
2023-02-27T00:20:15.852Z,98413.50
2023-02-27T00:22:44.205Z,98417.47
2023-02-27T00:25:12.745Z,98420.50
2023-02-27T00:27:40.397Z,98421.31
2023-02-27T00:30:10.243Z,98424.94
2023-02-27T00:32:37.691Z,98428.06
2023-02-27T00:35:06.336Z,98423.75
2023-02-27T00:37:34.544Z,98424.00
2023-02-27T00:40:02.275Z,98435.22
2023-02-27T00:42:30.987Z,98433.34
2023-02-27T00:44:58.803Z,98434.16
2023-02-27T00:47:26.067Z,98434.28
2023-02-27T00:49:53.742Z,98439.97
2023-02-27T00:52:20.941Z,98457.41
2023-02-27T00:54:48.075Z,98456.34
2023-02-27T00:57:15.281Z,98473.53
2023-02-27T00:59:42.883Z,98467.13
2023-02-27T01:02:14.158Z,98468.66
2023-02-27T01:04:41.510Z,98482.19
2023-02-27T01:07:09.706Z,98498.28
2023-02-27T01:09:36.960Z,98496.09
2023-02-27T01:12:04.516Z,98495.03
2023-02-27T01:14:31.784Z,98494.91
2023-02-27T01:16:58.995Z,98503.44
2023-02-27T01:19:26.176Z,98511.53
2023-02-27T01:21:53.593Z,98514.78
2023-02-27T01:24:21.988Z,98521.81
2023-02-27T01:26:49.504Z,98515.97
2023-02-27T01:29:16.706Z,98522.03
2023-02-27T01:31:44.810Z,98519.94
2023-02-27T01:34:12.255Z,98525.28
2023-02-27T01:36:41.015Z,98526.38
2023-02-27T01:39:08.592Z,98533.59
2023-02-27T01:41:36.164Z,98535.25
2023-02-27T01:44:08.420Z,98537.13
2023-02-27T01:46:38.496Z,98545.66
2023-02-27T01:49:17.501Z,98546.34
2023-02-27T01:52:16.363Z,98557.56
2023-02-27T01:54:43.663Z,98565.28
2023-02-27T01:57:10.866Z,98572.97
2023-02-27T01:59:41.780Z,98578.81
2023-02-27T02:02:21.856Z,98589.69
2023-02-27T02:04:51.065Z,98598.22
2023-02-27T02:07:21.945Z,98596.00
2023-02-27T02:09:52.637Z,98590.03
2023-02-27T02:12:24.314Z,98597.66
2023-02-27T02:14:51.919Z,98604.91
2023-02-27T02:17:35.877Z,98603.13
2023-02-27T02:20:31.192Z,98604.91
2023-02-27T02:23:22.991Z,98603.94
2023-02-27T02:26:04.137Z,98607.56
2023-02-27T02:29:13.207Z,98606.41
2023-02-27T02:31:57.618Z,98607.81
2023-02-27T02:34:59.023Z,98616.34
2023-02-27T02:37:26.386Z,98620.88
2023-02-27T02:40:15.223Z,98631.44
2023-02-27T02:43:03.477Z,98639.13
2023-02-27T02:45:47.189Z,98643.81
2023-02-27T02:48:21.318Z,98637.25
2023-02-27T02:50:56.456Z,98637.03
2023-02-27T02:53:48.205Z,98641.00
2023-02-27T02:56:22.170Z,98657.13
2023-02-27T02:59:17.300Z,98657.00
2023-02-27T03:02:05.278Z,98671.63
2023-02-27T03:04:52.182Z,98680.50
2023-02-27T03:07:26.066Z,98688.56
2023-02-27T03:10:09.049Z,98693.13
2023-02-27T03:12:40.865Z,98704.34
2023-02-27T03:15:17.004Z,98701.78
2023-02-27T03:18:03.048Z,98694.16
2023-02-27T03:20:35.414Z,98708.28
2023-02-27T03:23:08.154Z,98708.63
2023-02-27T03:25:36.659Z,98721.63
2023-02-27T03:28:09.324Z,98722.75
2023-02-27T03:30:47.081Z,98723.81
2023-02-27T03:33:41.059Z,98725.13
2023-02-27T03:36:14.488Z,98739.84
2023-02-27T03:39:00.270Z,98743.94
2023-02-27T03:41:32.909Z,98748.47
2023-02-27T03:44:56.293Z,98749.78
2023-02-27T03:47:24.234Z,98746.16
2023-02-27T03:49:52.166Z,98755.16
2023-02-27T03:52:21.199Z,98762.25
2023-02-27T03:55:02.449Z,98760.50
2023-02-27T03:57:31.115Z,98763.56
2023-02-27T03:59:59.502Z,98759.59
2023-02-27T04:02:28.221Z,98766.00
2023-02-27T04:04:56.073Z,98764.59
2023-02-27T04:07:54.498Z,98773.31
2023-02-27T04:10:41.134Z,98778.03
2023-02-27T04:13:31.678Z,98781.19
2023-02-27T04:16:20.535Z,98788.09
2023-02-27T04:19:06.778Z,98789.97
2023-02-27T04:22:12.395Z,98790.78
2023-02-27T04:24:54.691Z,98793.44
2023-02-27T04:27:40.564Z,98798.69
2023-02-27T04:30:25.906Z,98795.31
2023-02-27T04:33:21.017Z,98818.91
2023-02-27T04:35:51.979Z,98815.81
2023-02-27T04:38:26.330Z,98825.47
2023-02-27T04:41:07.688Z,98830.28
2023-02-27T04:43:37.348Z,98841.47
2023-02-27T04:46:08.619Z,98846.34
2023-02-27T04:48:43.340Z,98853.72
2023-02-27T04:51:14.329Z,98846.03
2023-02-27T04:53:51.783Z,98863.78
2023-02-27T04:56:26.486Z,98872.22
2023-02-27T04:58:59.671Z,98879.13
2023-02-27T05:01:52.889Z,98869.53
2023-02-27T05:04:22.780Z,98859.94
2023-02-27T05:06:54.262Z,98857.63
2023-02-27T05:09:30.664Z,98862.38
2023-02-27T05:12:42.263Z,98864.59
2023-02-27T05:15:24.882Z,98863.25
2023-02-27T05:18:04.342Z,98870.16
2023-02-27T05:20:55.684Z,98871.66
2023-02-27T05:23:56.204Z,98875.16
2023-02-27T05:26:40.104Z,98879.25
2023-02-27T05:29:19.506Z,98879.00
2023-02-27T05:32:17.723Z,98887.53
2023-02-27T05:34:52.722Z,98888.59
2023-02-27T05:37:34.522Z,98891.09
2023-02-27T05:40:08.401Z,98895.28
2023-02-27T05:42:43.830Z,98903.81
2023-02-27T05:45:19.009Z,98907.22
2023-02-27T05:47:53.927Z,98911.91
2023-02-27T05:50:26.498Z,98913.06
2023-02-27T05:52:57.576Z,98912.16
2023-02-27T05:55:31.656Z,98916.03
2023-02-27T05:58:12.897Z,98918.16
2023-02-27T06:00:51.693Z,98932.09
2023-02-27T06:03:19.056Z,98927.44
2023-02-27T06:05:47.021Z,98944.44
2023-02-27T06:08:14.328Z,98957.88
2023-02-27T06:10:41.489Z,98962.94
2023-02-27T06:13:08.683Z,98962.69
2023-02-27T06:15:36.004Z,98962.81
2023-02-27T06:18:03.368Z,98967.72
2023-02-27T06:20:30.563Z,98970.19
2023-02-27T06:22:57.808Z,98968.00
2023-02-27T06:25:25.134Z,98981.34
2023-02-27T06:27:52.585Z,98983.31
2023-02-27T06:30:20.068Z,98983.94
2023-02-27T06:32:47.382Z,98986.38
2023-02-27T06:35:14.833Z,98989.94
2023-02-27T06:37:42.051Z,98996.59
2023-02-27T06:40:11.657Z,99000.47
2023-02-27T06:42:40.121Z,99003.78
2023-02-27T06:45:07.999Z,98998.88
2023-02-27T06:47:35.453Z,99002.66
2023-02-27T06:50:03.628Z,99005.94
2023-02-27T06:52:31.453Z,99016.41
2023-02-27T06:54:59.044Z,99019.31
2023-02-27T06:57:26.244Z,99019.44
2023-02-27T06:59:53.486Z,99010.66
2023-02-27T07:02:20.765Z,99010.09
2023-02-27T07:04:47.995Z,99010.81
2023-02-27T07:07:33.798Z,99019.72
2023-02-27T07:10:03.018Z,99020.66
2023-02-27T07:12:30.200Z,99030.03
2023-02-27T07:14:57.357Z,99026.31
2023-02-27T07:17:24.525Z,99026.19
2023-02-27T07:19:51.670Z,99019.75
2023-02-27T07:22:18.830Z,99015.22
2023-02-27T07:24:46.028Z,99032.19
2023-02-27T07:27:13.210Z,99026.69
2023-02-27T07:29:40.390Z,99044.84
2023-02-27T07:32:07.628Z,99040.50
2023-02-27T07:34:34.951Z,99042.84
2023-02-27T07:37:02.140Z,99044.72
2023-02-27T07:39:29.383Z,99048.13
2023-02-27T07:41:56.591Z,99061.16
2023-02-27T07:44:23.821Z,99063.47
2023-02-27T07:46:51.022Z,99067.47
2023-02-27T07:49:18.279Z,99065.47
2023-02-27T07:51:45.586Z,99055.63
2023-02-27T07:54:12.770Z,99057.63
2023-02-27T07:56:39.959Z,99058.06
2023-02-27T07:59:07.264Z,99056.28
2023-02-27T08:01:34.393Z,99062.13
2023-02-27T08:04:01.577Z,99055.66
2023-02-27T08:06:29.351Z,99065.09
2023-02-27T08:08:56.788Z,99073.22
2023-02-27T08:11:24.376Z,99078.34
2023-02-27T08:14:00.978Z,99076.59
2023-02-27T08:16:31.578Z,99067.00
2023-02-27T08:19:00.242Z,99077.47
2023-02-27T08:21:28.085Z,99065.06
2023-02-27T08:23:55.565Z,99066.31
2023-02-27T08:26:23.194Z,99059.63
2023-02-27T08:28:51.140Z,99067.25
2023-02-27T08:31:18.400Z,99064.78
2023-02-27T08:33:45.580Z,99064.09
2023-02-27T08:36:13.356Z,99073.34
2023-02-27T08:38:40.672Z,99092.75
2023-02-27T08:41:08.093Z,99084.25
2023-02-27T08:43:35.263Z,99094.84
2023-02-27T08:46:02.610Z,99093.66
2023-02-27T08:48:29.863Z,99098.09
2023-02-27T08:50:57.999Z,99100.09
2023-02-27T08:53:25.391Z,99101.56
2023-02-27T08:55:53.309Z,99108.44
2023-02-27T08:58:20.921Z,99100.25
2023-02-27T09:00:48.285Z,99096.78
2023-02-27T09:03:15.843Z,99095.13
2023-02-27T09:05:43.537Z,99095.94
2023-02-27T09:08:10.794Z,99093.38
2023-02-27T09:10:37.984Z,99089.97
2023-02-27T09:13:05.178Z,99086.09
2023-02-27T09:15:34.446Z,99088.31
2023-02-27T09:18:03.222Z,99088.25
2023-02-27T09:20:31.766Z,99088.47
2023-02-27T09:22:59.926Z,99090.69
2023-02-27T09:25:27.883Z,99090.31
2023-02-27T09:27:55.525Z,99095.41
2023-02-27T09:30:23.371Z,99096.97
2023-02-27T09:32:51.604Z,99106.53
2023-02-27T09:35:20.539Z,99116.97
2023-02-27T09:37:49.654Z,99110.66
2023-02-27T09:40:17.184Z,99113.25
2023-02-27T09:42:46.455Z,99110.56
2023-02-27T09:45:23.399Z,99114.47
2023-02-27T09:47:56.061Z,99125.56
2023-02-27T09:50:49.097Z,99133.78
2023-02-27T09:53:31.455Z,99134.75
2023-02-27T09:56:07.279Z,99127.03
2023-02-27T09:59:08.199Z,99121.09
2023-02-27T10:01:51.000Z,99135.00
2023-02-27T10:04:23.959Z,99135.13
2023-02-27T10:06:52.943Z,99137.66
2023-02-27T10:09:44.794Z,99131.00
2023-02-27T10:12:32.672Z,99126.78
2023-02-27T10:15:10.692Z,99136.53
2023-02-27T10:18:07.091Z,99137.47
2023-02-27T10:20:47.664Z,99142.78
2023-02-27T10:23:23.026Z,99139.25
2023-02-27T10:25:51.950Z,99149.34
2023-02-27T10:28:21.625Z,99152.34
2023-02-27T10:30:54.893Z,99149.34
2023-02-27T10:33:35.624Z,99155.31
2023-02-27T10:36:12.455Z,99150.78
2023-02-27T10:38:49.541Z,99145.09
2023-02-27T10:41:20.334Z,99141.94
2023-02-27T10:43:49.619Z,99141.69
2023-02-27T10:46:25.281Z,99150.69
2023-02-27T10:48:53.209Z,99143.66
2023-02-27T10:51:28.014Z,99148.19
2023-02-27T10:54:24.346Z,99145.72
2023-02-27T10:56:58.101Z,99146.41
2023-02-27T10:59:25.296Z,99144.97
2023-02-27T11:01:54.689Z,99157.97
2023-02-27T11:04:46.122Z,99163.53
2023-02-27T11:07:16.765Z,99164.25
2023-02-27T11:09:59.422Z,99167.59
2023-02-27T11:12:28.921Z,99163.84
2023-02-27T11:14:58.551Z,99158.81
2023-02-27T11:17:34.123Z,99153.19
2023-02-27T11:20:06.125Z,99153.09
2023-02-27T11:22:33.613Z,99130.78
2023-02-27T11:25:21.430Z,99125.00
2023-02-27T11:27:50.197Z,99142.69
2023-02-27T11:30:28.586Z,99147.00
2023-02-27T11:32:59.025Z,99154.06
2023-02-27T11:35:36.447Z,99163.50
2023-02-27T11:38:07.420Z,99158.81
2023-02-27T11:40:40.952Z,99166.31
2023-02-27T11:43:25.172Z,99161.16
2023-02-27T11:46:13.910Z,99152.72
2023-02-27T11:48:51.249Z,99145.47
2023-02-27T11:51:32.825Z,99130.09
2023-02-27T11:54:27.082Z,99147.34
2023-02-27T11:57:00.156Z,99156.78
2023-02-27T11:59:41.836Z,99159.50
2023-02-27T12:02:41.265Z,99170.09
2023-02-27T12:05:22.896Z,99173.72
2023-02-27T12:07:57.409Z,99190.38
2023-02-27T12:11:13.633Z,99184.88
2023-02-27T12:13:47.035Z,99172.69
2023-02-27T12:16:22.619Z,99182.41
2023-02-27T12:18:58.130Z,99195.53
2023-02-27T12:21:33.273Z,99203.53
2023-02-27T12:24:09.758Z,99200.09
2023-02-27T12:26:40.849Z,99195.41
2023-02-27T12:29:30.446Z,99201.53
2023-02-27T12:32:02.887Z,99214.69
2023-02-27T12:34:46.505Z,99212.22
2023-02-27T12:37:17.271Z,99210.78
2023-02-27T12:39:45.653Z,99203.16
2023-02-27T12:42:27.983Z,99207.16
2023-02-27T12:45:16.598Z,99200.81
2023-02-27T12:48:08.617Z,99195.09
2023-02-27T12:51:00.345Z,99186.63
2023-02-27T12:53:36.527Z,99182.16
2023-02-27T12:56:11.032Z,99181.81
2023-02-27T12:59:03.730Z,99179.88
2023-02-27T13:01:50.860Z,99174.22
2023-02-27T13:04:35.063Z,99174.41
2023-02-27T13:07:13.123Z,99174.06
2023-02-27T13:09:56.589Z,99167.97
2023-02-27T13:12:41.584Z,99170.34
2023-02-27T13:15:30.174Z,99183.88
2023-02-27T13:18:04.611Z,99197.94
2023-02-27T13:20:50.483Z,99203.06
2023-02-27T13:23:29.390Z,99202.50
2023-02-27T13:25:57.756Z,99209.34
2023-02-27T13:28:27.879Z,99217.59
2023-02-27T13:31:09.358Z,99223.44
2023-02-27T13:33:51.682Z,99219.22
2023-02-27T13:36:26.514Z,99217.47
2023-02-27T13:38:55.962Z,99207.75
2023-02-27T13:41:23.082Z,99195.00
2023-02-27T13:43:53.140Z,99191.63
2023-02-27T13:46:30.580Z,99195.75
2023-02-27T13:49:00.623Z,99197.09
2023-02-27T13:51:39.964Z,99198.97
2023-02-27T13:54:07.173Z,99203.28
2023-02-27T13:56:34.620Z,99191.09
2023-02-27T13:59:13.217Z,99195.31
2023-02-27T14:01:47.887Z,99195.19
2023-02-27T14:04:18.696Z,99188.25
2023-02-27T14:06:47.450Z,99192.97
2023-02-27T14:09:20.276Z,99185.81
2023-02-27T14:11:59.726Z,99191.31
2023-02-27T14:14:45.057Z,99192.03
2023-02-27T14:17:39.029Z,99203.59
2023-02-27T14:20:15.390Z,99201.19
2023-02-27T14:23:08.173Z,99204.81
2023-02-27T14:25:40.390Z,99199.69
2023-02-27T14:28:18.477Z,99189.78
2023-02-27T14:30:53.169Z,99201.25
2023-02-27T14:33:41.051Z,99197.72
2023-02-27T14:36:20.002Z,99193.47
2023-02-27T14:38:48.374Z,99196.66
2023-02-27T14:41:44.926Z,99185.75
2023-02-27T14:44:18.268Z,99185.28
2023-02-27T14:46:45.522Z,99191.94
2023-02-27T14:49:21.682Z,99200.03
2023-02-27T14:51:50.618Z,99189.81
2023-02-27T14:54:21.090Z,99190.66
2023-02-27T14:56:59.918Z,99187.47
2023-02-27T14:59:48.887Z,99188.84
2023-02-27T15:02:32.897Z,99198.59
2023-02-27T15:05:03.367Z,99193.28
2023-02-27T15:07:33.211Z,99196.53
2023-02-27T15:10:04.493Z,99193.75
2023-02-27T15:12:37.090Z,99191.56
2023-02-27T15:15:06.165Z,99202.44
2023-02-27T15:17:39.745Z,99211.84
2023-02-27T15:20:25.942Z,99221.94
2023-02-27T15:22:53.868Z,99215.72
2023-02-27T15:25:39.642Z,99218.19
2023-02-27T15:28:17.661Z,99214.09
2023-02-27T15:30:52.052Z,99218.69
2023-02-27T15:33:26.648Z,99226.78
2023-02-27T15:35:54.044Z,99230.50
2023-02-27T15:38:29.622Z,99232.47
2023-02-27T15:40:58.537Z,99231.66
2023-02-27T15:43:27.941Z,99243.63
2023-02-27T15:45:56.320Z,99256.75
2023-02-27T15:48:23.832Z,99258.22
2023-02-27T15:50:57.389Z,99252.00
2023-02-27T15:53:30.748Z,99248.78
2023-02-27T15:56:01.602Z,99245.13
2023-02-27T15:58:31.931Z,99252.41
2023-02-27T16:01:07.875Z,99247.22
2023-02-27T16:03:46.330Z,99254.25
2023-02-27T16:06:24.545Z,99252.97
2023-02-27T16:09:00.569Z,99254.72
2023-02-27T16:11:30.276Z,99256.06
2023-02-27T16:13:58.029Z,99254.41
2023-02-27T16:16:35.392Z,99261.91
2023-02-27T16:19:22.711Z,99264.28
2023-02-27T16:22:12.979Z,99266.16
2023-02-27T16:24:40.804Z,99266.16
2023-02-27T16:27:22.155Z,99274.59
2023-02-27T16:29:50.110Z,99281.41
2023-02-27T16:32:42.279Z,99280.06
2023-02-27T16:35:22.323Z,99270.91
2023-02-27T16:37:50.499Z,99289.16
2023-02-27T16:40:25.990Z,99295.19
2023-02-27T16:42:53.958Z,99293.56
2023-02-27T16:45:27.041Z,99294.38
2023-02-27T16:47:57.204Z,99299.94
2023-02-27T16:50:31.667Z,99300.75
2023-02-27T16:52:59.348Z,99300.16
2023-02-27T16:55:27.249Z,99306.56
2023-02-27T16:57:54.499Z,99304.16
2023-02-27T17:00:24.890Z,99298.72
2023-02-27T17:02:52.218Z,99304.38
2023-02-27T17:05:19.560Z,99307.97
2023-02-27T17:07:47.129Z,99318.28
2023-02-27T17:10:16.803Z,99309.00
2023-02-27T17:12:44.215Z,99309.28
2023-02-27T17:15:11.546Z,99310.44
2023-02-27T17:17:38.718Z,99319.38
2023-02-27T17:20:07.362Z,99321.44
2023-02-27T17:22:39.879Z,99328.34
2023-02-27T17:25:08.408Z,99323.19
2023-02-27T17:27:36.368Z,99319.44
2023-02-27T17:30:04.532Z,99323.25
2023-02-27T17:32:31.827Z,99327.28
2023-02-27T17:34:59.301Z,99323.78
2023-02-27T17:37:27.180Z,99332.13
2023-02-27T17:39:54.861Z,99325.34
2023-02-27T17:42:25.560Z,99319.69
2023-02-27T17:44:53.059Z,99327.72
2023-02-27T17:47:20.383Z,99334.59
2023-02-27T17:49:47.654Z,99326.69
2023-02-27T17:52:15.092Z,99324.94
2023-02-27T17:54:42.286Z,99319.69
2023-02-27T17:57:11.461Z,99312.09
2023-02-27T17:59:38.852Z,99320.31
2023-02-27T18:02:07.675Z,99317.00
2023-02-27T18:04:35.112Z,99326.88
2023-02-27T18:07:02.374Z,99332.84
2023-02-27T18:09:29.612Z,99327.19
2023-02-27T18:11:57.880Z,99335.22
2023-02-27T18:14:25.216Z,99339.03
2023-02-27T18:16:52.531Z,99335.13
2023-02-27T18:19:19.838Z,99347.38
2023-02-27T18:21:47.249Z,99344.72
2023-02-27T18:24:17.638Z,99337.69
2023-02-27T18:26:45.340Z,99334.72
2023-02-27T18:29:13.990Z,99335.16
2023-02-27T18:31:44.552Z,99328.88
2023-02-27T18:34:12.806Z,99319.09
2023-02-27T18:36:40.163Z,99323.19
2023-02-27T18:39:08.107Z,99334.72
2023-02-27T18:41:35.643Z,99333.06
2023-02-27T18:44:03.833Z,99340.03
2023-02-27T18:46:32.572Z,99346.03
2023-02-27T18:48:59.956Z,99349.22
2023-02-27T18:51:27.657Z,99336.56
2023-02-27T18:53:54.918Z,99350.31
2023-02-27T18:56:24.887Z,99355.47
2023-02-27T18:58:52.833Z,99357.16
2023-02-27T19:01:26.713Z,99353.44
2023-02-27T19:04:00.132Z,99353.03
2023-02-27T19:06:27.943Z,99349.44
2023-02-27T19:08:55.856Z,99344.00
2023-02-27T19:11:26.004Z,99344.53
2023-02-27T19:13:53.230Z,99356.47
2023-02-27T19:16:20.493Z,99353.47
2023-02-27T19:18:47.797Z,99356.97
2023-02-27T19:21:14.986Z,99358.44
2023-02-27T19:23:42.203Z,99369.84
2023-02-27T19:26:09.401Z,99360.91
2023-02-27T19:28:36.618Z,99359.44
2023-02-27T19:31:12.732Z,99374.78
2023-02-27T19:33:40.633Z,99360.25
2023-02-27T19:36:14.494Z,99357.81
2023-02-27T19:38:41.986Z,99355.31
2023-02-27T19:41:11.448Z,99357.97
2023-02-27T19:43:40.785Z,99345.13
2023-02-27T19:46:10.658Z,99349.22
2023-02-27T19:48:38.499Z,99359.44
2023-02-27T19:51:07.775Z,99363.03
2023-02-27T19:53:36.644Z,99362.72
2023-02-27T19:56:07.538Z,99361.09
2023-02-27T19:58:36.160Z,99370.66
2023-02-27T20:01:04.554Z,99369.91
2023-02-27T20:03:33.218Z,99375.69
2023-02-27T20:06:00.582Z,99383.94
2023-02-27T20:08:28.014Z,99376.50
2023-02-27T20:10:56.883Z,99386.81
2023-02-27T20:13:25.052Z,99386.81
2023-02-27T20:16:04.208Z,99384.25
2023-02-27T20:18:32.237Z,99386.19
2023-02-27T20:21:04.412Z,99387.94
2023-02-27T20:23:32.930Z,99395.47
2023-02-27T20:26:00.461Z,99398.22
2023-02-27T20:28:31.868Z,99396.56
2023-02-27T20:30:59.150Z,99388.84
2023-02-27T20:33:26.347Z,99378.56
2023-02-27T20:35:53.659Z,99391.97
2023-02-27T20:38:22.714Z,99391.13
2023-02-27T20:40:49.975Z,99397.09
2023-02-27T20:43:17.152Z,99404.09
2023-02-27T20:45:44.349Z,99395.53
2023-02-27T20:48:11.675Z,99401.72
2023-02-27T20:50:38.856Z,99416.44
2023-02-27T20:53:05.965Z,99419.91
2023-02-27T20:55:33.214Z,99420.03
2023-02-27T20:58:00.379Z,99411.25
2023-02-27T21:00:27.855Z,99425.13
2023-02-27T21:02:55.128Z,99416.38
2023-02-27T21:05:22.519Z,99415.56
2023-02-27T21:07:49.752Z,99417.41
2023-02-27T21:10:17.815Z,99417.53
2023-02-27T21:12:45.116Z,99418.53
2023-02-27T21:15:12.679Z,99408.88
2023-02-27T21:17:39.984Z,99404.44
2023-02-27T21:20:08.028Z,99414.63
2023-02-27T21:22:35.539Z,99417.13
2023-02-27T21:25:02.761Z,99429.88
2023-02-27T21:27:29.930Z,99432.47
2023-02-27T21:29:57.121Z,99436.66
2023-02-27T21:32:24.287Z,99434.09
2023-02-27T21:34:51.493Z,99449.34
2023-02-27T21:37:18.963Z,99440.72
2023-02-27T21:39:50.569Z,99454.28
2023-02-27T21:42:18.560Z,99436.91
2023-02-27T21:44:45.884Z,99437.03
2023-02-27T21:47:13.143Z,99435.34
2023-02-27T21:49:40.316Z,99440.72
2023-02-27T21:52:07.459Z,99451.00
2023-02-27T21:54:34.752Z,99448.13
2023-02-27T21:57:03.200Z,99462.53
2023-02-27T21:59:30.780Z,99454.09
2023-02-27T22:01:58.585Z,99458.31
2023-02-27T22:04:25.831Z,99460.19
2023-02-27T22:06:53.000Z,99460.06
2023-02-27T22:09:20.685Z,99462.13
2023-02-27T22:11:48.779Z,99467.94
2023-02-27T22:14:16.203Z,99465.47
2023-02-27T22:16:43.503Z,99448.44
2023-02-27T22:19:19.664Z,99451.03
2023-02-27T22:21:46.969Z,99452.59
2023-02-27T22:24:14.676Z,99455.69
2023-02-27T22:26:42.582Z,99457.78
2023-02-27T22:29:10.125Z,99462.53
2023-02-27T22:31:38.297Z,99468.97
2023-02-27T22:34:17.906Z,99453.19
2023-02-27T22:36:47.072Z,99457.34
2023-02-27T22:39:14.472Z,99459.16
2023-02-27T22:41:42.467Z,99466.19
2023-02-27T22:44:13.175Z,99468.75
2023-02-27T22:46:43.621Z,99468.63
2023-02-27T22:49:14.388Z,99460.75
2023-02-27T22:51:42.006Z,99467.81
2023-02-27T22:54:11.654Z,99467.25
2023-02-27T22:56:38.928Z,99475.59
2023-02-27T22:59:06.677Z,99478.41
2023-02-27T23:01:36.235Z,99474.69
2023-02-27T23:04:07.919Z,99484.59
2023-02-27T23:06:38.867Z,99483.22
2023-02-27T23:09:08.699Z,99489.72
2023-02-27T23:11:36.185Z,99488.41
2023-02-27T23:14:03.780Z,99488.13
2023-02-27T23:16:31.282Z,99496.75
2023-02-27T23:18:59.841Z,99495.00
2023-02-27T23:21:34.380Z,99496.88
2023-02-27T23:24:13.030Z,99493.47
2023-02-27T23:26:43.477Z,99488.41
2023-02-27T23:29:11.708Z,99491.91
2023-02-27T23:31:39.080Z,99487.06
2023-02-27T23:34:06.939Z,99495.59
2023-02-27T23:36:35.564Z,99487.69
2023-02-27T23:39:05.073Z,99488.41
2023-02-27T23:41:32.827Z,99495.50
2023-02-27T23:44:01.477Z,99490.97
2023-02-27T23:46:31.558Z,99483.53
2023-02-27T23:48:59.632Z,99486.88
2023-02-27T23:51:30.317Z,99482.03
2023-02-27T23:53:58.475Z,99487.59
2023-02-27T23:56:28.713Z,99484.09
2023-02-27T23:59:04.920Z,99485.94
